createdAt,value
2022-10-06T00:01:19.816Z,13.00
2022-10-06T00:03:46.695Z,13.00
2022-10-06T00:06:21.780Z,12.90
2022-10-06T00:08:48.521Z,12.90
2022-10-06T00:11:22.778Z,12.90
2022-10-06T00:13:49.623Z,12.90
2022-10-06T00:16:28.809Z,12.90
2022-10-06T00:18:56.893Z,12.90
2022-10-06T00:21:29.777Z,12.90
2022-10-06T00:23:56.582Z,12.90
2022-10-06T00:26:29.848Z,12.90
2022-10-06T00:28:56.749Z,12.90
2022-10-06T00:31:24.085Z,12.90
2022-10-06T00:33:57.805Z,12.90
2022-10-06T00:36:24.545Z,12.80
2022-10-06T00:38:58.003Z,12.80
2022-10-06T00:41:24.804Z,12.80
2022-10-06T00:44:05.790Z,12.80
2022-10-06T00:47:05.172Z,12.80
2022-10-06T00:49:43.968Z,12.80
2022-10-06T00:52:22.844Z,12.80
2022-10-06T00:54:56.832Z,12.70
2022-10-06T00:57:23.848Z,12.70
2022-10-06T00:59:56.972Z,12.70
2022-10-06T01:02:34.378Z,12.70
2022-10-06T01:05:09.921Z,12.70
2022-10-06T01:07:36.639Z,12.60
2022-10-06T01:10:10.889Z,12.60
2022-10-06T01:12:38.467Z,12.60
2022-10-06T01:15:12.904Z,12.60
2022-10-06T01:17:53.847Z,12.60
2022-10-06T01:20:30.034Z,12.50
2022-10-06T01:23:14.070Z,12.50
2022-10-06T01:25:48.178Z,12.50
2022-10-06T01:28:21.900Z,12.40
2022-10-06T01:30:58.904Z,12.40
2022-10-06T01:33:25.633Z,12.30
2022-10-06T01:35:59.910Z,12.30
2022-10-06T01:38:27.259Z,12.30
2022-10-06T01:41:00.908Z,12.20
2022-10-06T01:43:28.451Z,12.30
2022-10-06T01:46:02.949Z,12.20
2022-10-06T01:48:29.961Z,12.20
2022-10-06T01:51:03.900Z,12.10
2022-10-06T01:53:30.634Z,12.10
2022-10-06T01:56:07.905Z,12.00
2022-10-06T01:58:34.792Z,12.00
2022-10-06T02:01:16.003Z,12.00
2022-10-06T02:03:49.918Z,11.90
2022-10-06T02:06:30.011Z,11.90
2022-10-06T02:09:02.674Z,11.90
2022-10-06T02:11:35.987Z,11.80
2022-10-06T02:14:08.942Z,11.80
2022-10-06T02:16:42.952Z,11.80
2022-10-06T02:19:15.939Z,11.80
2022-10-06T02:21:42.840Z,11.70
2022-10-06T02:24:15.966Z,11.70
2022-10-06T02:26:42.713Z,11.70
2022-10-06T02:29:15.950Z,11.70
2022-10-06T02:31:42.792Z,11.60
2022-10-06T02:34:16.960Z,11.60
2022-10-06T02:36:50.000Z,11.60
2022-10-06T02:39:23.023Z,11.50
2022-10-06T02:41:49.747Z,11.50
2022-10-06T02:44:22.988Z,11.50
2022-10-06T02:46:56.055Z,11.40
2022-10-06T02:49:29.035Z,11.40
2022-10-06T02:51:55.825Z,11.40
2022-10-06T02:54:29.017Z,11.30
2022-10-06T02:56:55.810Z,11.30
2022-10-06T02:59:31.996Z,11.30
2022-10-06T03:01:58.803Z,11.30
2022-10-06T03:04:25.631Z,11.30
2022-10-06T03:06:59.109Z,11.30
2022-10-06T03:09:25.856Z,11.30
2022-10-06T03:11:59.041Z,11.30
2022-10-06T03:14:32.150Z,11.30
2022-10-06T03:17:06.060Z,11.30
2022-10-06T03:19:32.856Z,11.30
2022-10-06T03:22:06.069Z,11.30
2022-10-06T03:24:40.060Z,11.30
2022-10-06T03:27:07.836Z,11.30
2022-10-06T03:29:35.067Z,11.30
2022-10-06T03:32:08.079Z,11.30
2022-10-06T03:34:34.829Z,11.30
2022-10-06T03:37:08.087Z,11.30
2022-10-06T03:39:41.107Z,11.30
2022-10-06T03:42:07.867Z,11.30
2022-10-06T03:44:41.089Z,11.30
2022-10-06T03:47:07.929Z,11.30
2022-10-06T03:49:34.742Z,11.20
2022-10-06T03:52:08.121Z,11.20
2022-10-06T03:54:34.841Z,11.20
2022-10-06T03:57:08.131Z,11.30
2022-10-06T03:59:34.906Z,11.20
2022-10-06T04:02:08.200Z,11.20
2022-10-06T04:04:34.998Z,11.20
2022-10-06T04:07:01.853Z,11.20
2022-10-06T04:09:35.157Z,11.20
2022-10-06T04:12:08.131Z,11.20
2022-10-06T04:14:35.063Z,11.20
2022-10-06T04:17:08.123Z,11.20
2022-10-06T04:19:34.908Z,11.20
2022-10-06T04:22:08.187Z,11.20
2022-10-06T04:24:35.035Z,11.20
2022-10-06T04:27:27.303Z,11.10
2022-10-06T04:29:54.015Z,11.10
2022-10-06T04:32:27.158Z,11.00
2022-10-06T04:34:56.254Z,11.00
2022-10-06T04:37:29.177Z,11.00
2022-10-06T04:39:55.959Z,10.90
2022-10-06T04:42:33.972Z,10.90
2022-10-06T04:45:01.875Z,10.80
2022-10-06T04:47:35.324Z,10.80
2022-10-06T04:50:02.089Z,10.80
2022-10-06T04:52:28.858Z,10.80
2022-10-06T04:55:02.193Z,10.80
2022-10-06T04:57:35.199Z,10.80
2022-10-06T05:00:20.908Z,10.70
2022-10-06T05:02:54.169Z,10.70
2022-10-06T05:05:27.188Z,10.70
2022-10-06T05:07:53.993Z,10.70
2022-10-06T05:10:27.222Z,10.70
2022-10-06T05:13:00.948Z,10.60
2022-10-06T05:15:34.430Z,10.70
2022-10-06T05:18:01.273Z,10.60
2022-10-06T05:20:34.221Z,10.60
2022-10-06T05:23:07.327Z,10.60
2022-10-06T05:25:34.312Z,10.60
2022-10-06T05:28:07.281Z,10.60
2022-10-06T05:30:40.296Z,10.60
2022-10-06T05:33:07.490Z,10.60
2022-10-06T05:35:34.510Z,10.60
2022-10-06T05:38:08.254Z,10.50
2022-10-06T05:40:35.018Z,10.50
2022-10-06T05:43:08.262Z,10.60
2022-10-06T05:45:42.376Z,10.50
2022-10-06T05:48:15.251Z,10.50
2022-10-06T05:50:42.025Z,10.50
2022-10-06T05:53:15.297Z,10.60
2022-10-06T05:55:42.134Z,10.60
2022-10-06T05:58:28.080Z,10.60
2022-10-06T06:00:54.848Z,10.60
2022-10-06T06:03:28.314Z,10.60
2022-10-06T06:06:01.323Z,10.70
2022-10-06T06:08:35.364Z,10.60
2022-10-06T06:11:08.222Z,10.70
2022-10-06T06:13:42.354Z,10.70
2022-10-06T06:16:20.346Z,10.70
2022-10-06T06:18:53.331Z,10.70
2022-10-06T06:21:20.364Z,10.70
2022-10-06T06:23:55.352Z,10.70
2022-10-06T06:26:24.842Z,10.70
2022-10-06T06:29:00.334Z,10.70
2022-10-06T06:31:30.346Z,10.70
2022-10-06T06:33:59.326Z,10.80
2022-10-06T06:36:43.371Z,10.80
2022-10-06T06:39:12.480Z,10.80
2022-10-06T06:41:48.347Z,10.90
2022-10-06T06:44:22.446Z,10.90
2022-10-06T06:46:49.595Z,10.90
2022-10-06T06:49:17.271Z,10.90
2022-10-06T06:51:56.391Z,11.00
2022-10-06T06:54:23.264Z,11.00
2022-10-06T06:56:56.399Z,11.00
2022-10-06T06:59:23.211Z,11.00
2022-10-06T07:01:58.324Z,11.10
2022-10-06T07:04:25.119Z,11.10
2022-10-06T07:07:04.384Z,11.20
2022-10-06T07:09:40.475Z,11.20
2022-10-06T07:12:14.446Z,11.20
2022-10-06T07:15:01.156Z,11.30
2022-10-06T07:17:53.448Z,11.30
2022-10-06T07:20:38.969Z,11.30
2022-10-06T07:23:31.450Z,11.40
2022-10-06T07:25:58.474Z,11.40
2022-10-06T07:28:31.470Z,11.50
2022-10-06T07:31:00.693Z,11.50
2022-10-06T07:33:39.450Z,11.50
2022-10-06T07:36:06.498Z,11.60
2022-10-06T07:38:39.457Z,11.70
2022-10-06T07:41:21.557Z,11.70
2022-10-06T07:43:55.525Z,11.80
2022-10-06T07:46:22.463Z,11.80
2022-10-06T07:48:56.476Z,11.90
2022-10-06T07:51:31.526Z,12.00
2022-10-06T07:53:58.603Z,12.00
2022-10-06T07:56:25.801Z,12.00
2022-10-06T07:58:59.511Z,12.10
2022-10-06T08:01:27.471Z,12.10
2022-10-06T08:04:00.512Z,12.20
2022-10-06T08:06:27.363Z,12.20
2022-10-06T08:09:01.538Z,12.20
2022-10-06T08:11:28.389Z,12.30
2022-10-06T08:13:55.263Z,12.40
2022-10-06T08:16:30.626Z,12.40
2022-10-06T08:19:06.548Z,12.40
2022-10-06T08:21:39.001Z,12.50
2022-10-06T08:24:19.545Z,12.50
2022-10-06T08:26:52.557Z,12.60
2022-10-06T08:29:19.350Z,12.60
2022-10-06T08:31:46.191Z,12.70
2022-10-06T08:34:19.556Z,12.80
2022-10-06T08:37:08.678Z,12.90
2022-10-06T08:39:39.543Z,13.00
2022-10-06T08:42:10.042Z,13.10
2022-10-06T08:44:51.791Z,13.20
2022-10-06T08:47:22.710Z,13.30
2022-10-06T08:49:58.867Z,13.40
2022-10-06T08:52:46.976Z,13.50
2022-10-06T08:55:32.588Z,13.60
2022-10-06T08:58:02.263Z,13.60
2022-10-06T09:00:39.612Z,13.70
2022-10-06T09:03:16.105Z,13.80
2022-10-06T09:05:49.665Z,13.90
2022-10-06T09:08:33.358Z,14.00
2022-10-06T09:11:26.638Z,14.00
2022-10-06T09:14:12.597Z,14.20
2022-10-06T09:16:44.129Z,14.30
2022-10-06T09:19:37.651Z,14.40
2022-10-06T09:22:16.336Z,14.50
2022-10-06T09:24:52.629Z,14.70
2022-10-06T09:27:29.697Z,14.80
2022-10-06T09:29:57.001Z,15.00
2022-10-06T09:32:32.606Z,15.10
2022-10-06T09:35:04.577Z,15.10
2022-10-06T09:38:03.253Z,15.20
2022-10-06T09:40:38.418Z,15.30
2022-10-06T09:43:31.643Z,15.40
2022-10-06T09:46:24.419Z,15.60
2022-10-06T09:49:21.647Z,15.70
2022-10-06T09:52:16.044Z,15.80
2022-10-06T09:54:51.719Z,16.00
2022-10-06T09:57:31.680Z,16.20
2022-10-06T10:00:00.185Z,16.30
2022-10-06T10:02:43.728Z,16.20
2022-10-06T10:05:20.365Z,16.10
2022-10-06T10:08:12.885Z,15.80
2022-10-06T10:10:46.674Z,15.70
2022-10-06T10:13:26.126Z,15.60
2022-10-06T10:16:08.815Z,15.50
2022-10-06T10:18:35.785Z,15.40
2022-10-06T10:21:06.580Z,15.50
2022-10-06T10:23:47.705Z,15.60
2022-10-06T10:26:29.717Z,15.80
2022-10-06T10:29:02.792Z,15.90
2022-10-06T10:32:04.174Z,16.10
2022-10-06T10:34:58.944Z,16.20
2022-10-06T10:37:41.871Z,16.20
2022-10-06T10:40:19.898Z,16.40
2022-10-06T10:43:04.810Z,16.50
2022-10-06T10:45:36.703Z,16.50
2022-10-06T10:48:21.839Z,16.60
2022-10-06T10:50:55.682Z,16.60
2022-10-06T10:53:36.545Z,16.60
2022-10-06T10:56:22.787Z,16.40
2022-10-06T10:58:59.054Z,16.30
2022-10-06T11:02:01.088Z,16.20
2022-10-06T11:04:39.766Z,16.20
2022-10-06T11:07:37.763Z,16.20
2022-10-06T11:10:27.766Z,16.30
2022-10-06T11:13:16.834Z,16.50
2022-10-06T11:16:06.811Z,16.70
2022-10-06T11:19:12.730Z,16.80
2022-10-06T11:21:53.039Z,16.90
2022-10-06T11:24:32.818Z,17.10
2022-10-06T11:27:18.320Z,17.10
2022-10-06T11:30:01.142Z,17.20
2022-10-06T11:32:49.834Z,17.30
2022-10-06T11:35:24.837Z,17.40
2022-10-06T11:38:38.881Z,17.40
2022-10-06T11:41:11.790Z,17.40
2022-10-06T11:43:45.904Z,17.40
2022-10-06T11:46:45.098Z,17.40
2022-10-06T11:49:37.871Z,17.40
2022-10-06T11:52:13.827Z,17.30
2022-10-06T11:54:40.561Z,17.40
2022-10-06T11:57:31.267Z,17.50
2022-10-06T12:00:04.437Z,17.60
2022-10-06T12:02:44.971Z,17.70
2022-10-06T12:08:07.886Z,17.60
2022-10-06T12:10:35.695Z,17.70
2022-10-06T12:19:57.939Z,18.00
2022-10-06T12:22:31.290Z,18.00
2022-10-06T12:25:12.900Z,18.00
2022-10-06T12:27:44.375Z,17.90
2022-10-06T12:30:25.895Z,17.80
2022-10-06T12:32:54.280Z,18.00
2022-10-06T12:35:35.931Z,18.00
2022-10-06T12:38:43.132Z,18.00
2022-10-06T12:41:20.910Z,17.90
2022-10-06T12:44:03.920Z,17.80
2022-10-06T12:46:47.999Z,17.70
2022-10-06T12:49:42.962Z,17.70
2022-10-06T12:52:44.939Z,17.80
2022-10-06T12:55:49.959Z,17.90
2022-10-06T12:58:34.003Z,17.80
2022-10-06T13:01:09.405Z,17.80
2022-10-06T13:03:43.959Z,17.90
2022-10-06T13:06:11.121Z,18.10
2022-10-06T13:08:45.959Z,18.10
2022-10-06T13:11:23.025Z,18.00
2022-10-06T13:14:01.984Z,17.90
2022-10-06T13:16:32.258Z,17.80
2022-10-06T13:19:07.976Z,17.70
2022-10-06T13:21:37.735Z,17.70
2022-10-06T13:24:11.995Z,17.80
2022-10-06T13:26:48.776Z,17.90
2022-10-06T13:29:25.014Z,17.80
2022-10-06T13:32:01.055Z,17.80
2022-10-06T13:34:34.857Z,17.80
2022-10-06T13:37:09.022Z,17.70
2022-10-06T13:39:42.994Z,17.70
2022-10-06T13:42:23.033Z,17.60
2022-10-06T13:44:59.672Z,17.50
2022-10-06T13:47:36.079Z,17.50
2022-10-06T13:50:07.166Z,17.40
2022-10-06T13:52:44.032Z,17.40
2022-10-06T13:55:30.058Z,17.30
2022-10-06T13:58:03.402Z,17.20
2022-10-06T14:00:58.028Z,17.20
2022-10-06T14:03:38.191Z,17.20
2022-10-06T14:06:11.033Z,17.20
2022-10-06T14:08:38.322Z,17.10
2022-10-06T14:11:14.044Z,17.10
2022-10-06T14:13:58.057Z,17.00
2022-10-06T14:16:34.048Z,17.00
2022-10-06T14:19:12.037Z,16.90
2022-10-06T14:21:51.199Z,16.90
2022-10-06T14:24:27.061Z,16.80
2022-10-06T14:27:08.155Z,16.80
2022-10-06T14:29:37.755Z,16.80
2022-10-06T14:32:22.076Z,16.80
2022-10-06T14:34:55.126Z,16.80
2022-10-06T14:37:29.067Z,16.80
2022-10-06T14:40:02.692Z,16.70
2022-10-06T14:42:36.121Z,16.70
2022-10-06T14:45:03.511Z,16.60
2022-10-06T14:47:38.102Z,16.50
2022-10-06T14:50:05.587Z,16.50
2022-10-06T14:52:39.134Z,16.50
2022-10-06T14:55:14.251Z,16.60
2022-10-06T14:57:41.013Z,16.50
2022-10-06T15:00:15.157Z,16.40
2022-10-06T15:02:48.273Z,16.40
2022-10-06T15:05:22.143Z,16.40
2022-10-06T15:08:14.174Z,16.40
2022-10-06T15:10:58.163Z,16.30
2022-10-06T15:13:25.036Z,16.30
2022-10-06T15:16:05.235Z,16.30
2022-10-06T15:18:42.742Z,16.30
2022-10-06T15:21:11.330Z,16.20
2022-10-06T15:23:46.362Z,16.20
2022-10-06T15:26:31.586Z,16.20
2022-10-06T15:29:07.215Z,16.10
2022-10-06T15:31:36.953Z,16.10
2022-10-06T15:34:14.190Z,16.00
2022-10-06T15:36:45.357Z,15.90
2022-10-06T15:39:20.188Z,15.90
2022-10-06T15:41:55.186Z,15.80
2022-10-06T15:44:29.224Z,15.80
2022-10-06T15:46:56.375Z,15.70
2022-10-06T15:49:32.196Z,15.70
2022-10-06T15:52:02.802Z,15.60
2022-10-06T15:54:40.256Z,15.60
2022-10-06T15:57:21.206Z,15.60
2022-10-06T15:59:55.246Z,15.50
2022-10-06T16:02:28.375Z,15.50
2022-10-06T16:04:55.235Z,15.40
2022-10-06T16:07:28.237Z,15.30
2022-10-06T16:09:55.026Z,15.30
2022-10-06T16:12:23.147Z,15.30
2022-10-06T16:14:56.273Z,15.20
2022-10-06T16:17:23.056Z,15.20
2022-10-06T16:19:56.328Z,15.20
2022-10-06T16:22:23.125Z,15.10
2022-10-06T16:24:56.269Z,15.10
2022-10-06T16:27:23.083Z,15.00
2022-10-06T16:29:56.337Z,15.00
2022-10-06T16:32:29.326Z,14.90
2022-10-06T16:35:02.376Z,14.90
2022-10-06T16:37:35.327Z,14.80
2022-10-06T16:40:09.239Z,14.80
2022-10-06T16:42:42.265Z,14.70
2022-10-06T16:45:09.506Z,14.70
2022-10-06T16:47:42.296Z,14.60
2022-10-06T16:50:09.417Z,14.50
2022-10-06T16:52:42.287Z,14.50
2022-10-06T16:55:15.287Z,14.50
2022-10-06T16:57:42.094Z,14.40
2022-10-06T17:00:16.292Z,14.40
2022-10-06T17:02:43.250Z,14.30
2022-10-06T17:05:16.459Z,14.30
2022-10-06T17:07:44.188Z,14.20
2022-10-06T17:10:20.639Z,14.20
2022-10-06T17:12:48.084Z,14.10
2022-10-06T17:15:21.348Z,14.10
2022-10-06T17:17:48.058Z,14.00
2022-10-06T17:20:22.321Z,14.00
2022-10-06T17:22:50.246Z,14.00
2022-10-06T17:25:23.410Z,13.90
2022-10-06T17:27:56.445Z,13.90
2022-10-06T17:30:23.337Z,13.90
2022-10-06T17:32:56.346Z,13.80
2022-10-06T17:35:23.249Z,13.80
2022-10-06T17:37:50.230Z,13.70
2022-10-06T17:40:23.375Z,13.70
2022-10-06T17:42:56.369Z,13.70
2022-10-06T17:45:23.559Z,13.60
2022-10-06T17:47:58.435Z,13.60
2022-10-06T17:50:25.246Z,13.60
2022-10-06T17:52:58.410Z,13.60
2022-10-06T17:55:28.104Z,13.50
2022-10-06T17:58:05.436Z,13.60
2022-10-06T18:00:32.233Z,13.50
2022-10-06T18:03:06.441Z,13.50
2022-10-06T18:05:39.615Z,13.50
2022-10-06T18:08:08.741Z,13.50
2022-10-06T18:11:01.422Z,13.40
2022-10-06T18:13:37.428Z,13.40
2022-10-06T18:16:04.386Z,13.40
2022-10-06T18:18:31.268Z,13.40
2022-10-06T18:21:10.457Z,13.40
2022-10-06T18:23:37.707Z,13.40
2022-10-06T18:26:13.469Z,13.30
2022-10-06T18:28:40.425Z,13.30
2022-10-06T18:31:14.547Z,13.20
2022-10-06T18:36:39.439Z,13.20
2022-10-06T18:39:07.418Z,13.20
2022-10-06T18:41:41.513Z,13.20
2022-10-06T18:44:09.208Z,13.20
2022-10-06T18:47:01.582Z,13.20
2022-10-06T18:49:28.421Z,13.10
2022-10-06T18:52:02.519Z,13.10
2022-10-06T18:54:30.220Z,13.10
2022-10-06T18:56:57.154Z,13.10
2022-10-06T18:59:33.522Z,13.00
2022-10-06T19:02:00.690Z,13.10
2022-10-06T19:04:27.544Z,13.00
2022-10-06T19:07:01.495Z,13.00
2022-10-06T19:09:28.622Z,12.90
2022-10-06T19:12:04.496Z,12.90
2022-10-06T19:14:35.392Z,12.80
2022-10-06T19:17:20.508Z,12.90
2022-10-06T19:19:51.498Z,12.80
2022-10-06T19:22:30.518Z,12.80
2022-10-06T19:24:57.255Z,12.80
2022-10-06T19:27:31.524Z,12.80
2022-10-06T19:29:58.370Z,12.70
2022-10-06T19:32:35.574Z,12.70
2022-10-06T19:35:06.363Z,12.70
2022-10-06T19:37:42.790Z,12.70
2022-10-06T19:40:17.567Z,12.70
2022-10-06T19:42:47.868Z,12.70
2022-10-06T19:45:22.604Z,12.70
2022-10-06T19:47:51.344Z,12.60
2022-10-06T19:50:24.565Z,12.60
2022-10-06T19:52:51.838Z,12.60
2022-10-06T19:55:26.582Z,12.60
2022-10-06T19:57:53.436Z,12.60
2022-10-06T20:00:20.293Z,12.60
2022-10-06T20:02:53.579Z,12.50
2022-10-06T20:05:20.606Z,12.50
2022-10-06T20:07:53.652Z,12.50
2022-10-06T20:10:26.578Z,12.50
2022-10-06T20:12:59.652Z,12.50
2022-10-06T20:15:33.630Z,12.50
2022-10-06T20:18:07.614Z,12.50
2022-10-06T20:20:41.654Z,12.50
2022-10-06T20:23:08.440Z,12.40
2022-10-06T20:25:41.665Z,12.40
2022-10-06T20:28:09.381Z,12.40
2022-10-06T20:30:42.658Z,12.40
2022-10-06T20:33:11.733Z,12.40
2022-10-06T20:35:44.626Z,12.40
2022-10-06T20:38:11.688Z,12.40
2022-10-06T20:40:55.630Z,12.40
2022-10-06T20:43:23.376Z,12.40
2022-10-06T20:46:00.701Z,12.30
2022-10-06T20:48:35.868Z,12.30
2022-10-06T20:51:10.007Z,12.30
2022-10-06T20:53:43.689Z,12.30
2022-10-06T20:56:10.653Z,12.30
2022-10-06T20:58:49.733Z,12.30
2022-10-06T21:01:17.520Z,12.20
2022-10-06T21:03:52.680Z,12.20
2022-10-06T21:06:30.664Z,12.20
2022-10-06T21:08:58.601Z,12.20
2022-10-06T21:11:26.446Z,12.10
2022-10-06T21:14:02.686Z,12.10
2022-10-06T21:16:32.198Z,12.10
2022-10-06T21:19:02.301Z,12.10
2022-10-06T21:21:35.717Z,12.00
2022-10-06T21:24:03.668Z,12.00
2022-10-06T21:26:37.688Z,12.00
2022-10-06T21:29:11.692Z,12.00
2022-10-06T21:31:39.041Z,12.00
2022-10-06T21:34:05.902Z,11.90
2022-10-06T21:36:39.735Z,11.90
2022-10-06T21:39:12.880Z,11.90
2022-10-06T21:41:40.470Z,11.90
2022-10-06T21:44:29.743Z,11.90
2022-10-06T21:47:03.350Z,11.80
2022-10-06T21:49:36.724Z,11.80
2022-10-06T21:52:05.271Z,11.80
2022-10-06T21:54:38.772Z,11.80
2022-10-06T21:57:14.722Z,11.80
2022-10-06T21:59:41.452Z,11.80
2022-10-06T22:02:14.789Z,11.80
2022-10-06T22:04:48.788Z,11.80
2022-10-06T22:07:21.761Z,11.70
2022-10-06T22:09:48.511Z,11.70
2022-10-06T22:12:15.294Z,11.70
2022-10-06T22:14:48.777Z,11.70
2022-10-06T22:17:15.554Z,11.70
2022-10-06T22:19:48.862Z,11.60
2022-10-06T22:22:15.873Z,11.60
2022-10-06T22:24:48.810Z,11.60
2022-10-06T22:27:15.587Z,11.60
2022-10-06T22:29:55.827Z,11.60
2022-10-06T22:32:23.285Z,11.60
2022-10-06T22:34:56.873Z,11.60
2022-10-06T22:37:29.790Z,11.60
2022-10-06T22:39:56.480Z,11.60
2022-10-06T22:42:29.834Z,11.60
2022-10-06T22:44:56.559Z,11.60
2022-10-06T22:47:29.930Z,11.60
2022-10-06T22:49:56.673Z,11.60
2022-10-06T22:52:29.882Z,11.60
2022-10-06T22:54:58.203Z,11.60
2022-10-06T22:57:31.813Z,11.60
2022-10-06T22:59:58.678Z,11.60
2022-10-06T23:02:31.831Z,11.60
2022-10-06T23:04:58.531Z,11.60
2022-10-06T23:07:31.917Z,11.60
2022-10-06T23:09:58.624Z,11.70
2022-10-06T23:12:31.844Z,11.70
2022-10-06T23:15:04.868Z,11.70
2022-10-06T23:17:37.860Z,11.70
2022-10-06T23:20:05.034Z,11.80
2022-10-06T23:22:38.856Z,11.70
2022-10-06T23:25:06.949Z,11.70
2022-10-06T23:27:43.270Z,11.70
2022-10-06T23:30:10.620Z,11.70
2022-10-06T23:32:43.910Z,11.70
2022-10-06T23:35:11.359Z,11.70
2022-10-06T23:37:45.184Z,11.70
2022-10-06T23:40:12.252Z,11.70
2022-10-06T23:42:45.896Z,11.70
2022-10-06T23:45:12.804Z,11.70
2022-10-06T23:47:46.364Z,11.70
2022-10-06T23:50:13.261Z,11.70
2022-10-06T23:52:46.928Z,11.60
2022-10-06T23:55:19.912Z,11.60
2022-10-06T23:57:46.811Z,11.60
